Time;durP1;ratioP1;P1;durP2;ratioP2;P2;SDS_P1;SDS_P2;PMS_P1;PMS_P2;Temp;Humidity;BMP_temperature;BMP_pressure;BME280_temperature;BME280_humidity;BME280_pressure;Samples;Min_cycle;Max_cycle;Signal;HPM_P1;HPM_P2
2022/09/26 00:05:27;;;;;;;5.30;2.70;;;;;;;13.35;83.70;100313.56;30876096;28;20058;-75
2022/09/26 00:20:28;;;;;;;2.80;2.40;;;;;;;13.39;85.31;100319.69;30868781;28;20085;-75
2022/09/26 00:35:31;;;;;;;4.03;2.27;;;;;;;13.28;85.67;100320.75;30876372;28;20085;-74
2022/09/26 00:50:40;;;;;;;4.60;2.57;;;;;;;13.07;86.83;100294.03;30876103;28;20062;-74
2022/09/26 01:05:44;;;;;;;8.43;3.53;;;;;;;12.58;88.42;100305.03;30888694;28;20471;-75
2022/09/26 01:21:27;;;;;;;7.43;3.23;;;;;;;12.20;92.83;100287.69;30885406;28;20058;-74
2022/09/26 01:37:17;;;;;;;4.27;3.37;;;;;;;11.99;97.14;100272.59;30892192;28;20101;-74
2022/09/26 01:52:40;;;;;;;6.23;3.27;;;;;;;12.01;98.38;100285.78;30892112;28;20062;-75
2022/09/26 02:07:47;;;;;;;6.70;4.40;;;;;;;12.10;100.00;100269.63;30869224;28;20042;-73
2022/09/26 02:22:49;;;;;;;8.30;3.27;;;;;;;12.23;100.00;100259.63;30858016;28;20121;-74
2022/09/26 02:37:51;;;;;;;8.37;3.57;;;;;;;12.35;100.00;100250.75;30881927;28;20074;-74
2022/09/26 02:53:20;;;;;;;5.50;3.67;;;;;;;12.39;100.00;100251.44;30876589;28;20055;-74
2022/09/26 03:08:28;;;;;;;5.60;3.50;;;;;;;12.39;100.00;100245.22;30880292;28;20050;-74
2022/09/26 03:23:30;;;;;;;8.93;5.10;;;;;;;12.47;100.00;100228.28;30871526;28;20597;-75
2022/09/26 03:38:32;;;;;;;7.87;5.13;;;;;;;12.61;100.00;100225.19;30876259;28;20046;-74
2022/09/26 03:53:36;;;;;;;10.70;5.53;;;;;;;12.69;100.00;100212.16;30856223;28;20066;-75
2022/09/26 04:08:40;;;;;;;9.80;5.30;;;;;;;12.75;100.00;100215.13;30841138;28;20051;-75
2022/09/26 04:23:43;;;;;;;8.60;5.87;;;;;;;12.92;100.00;100222.06;30868668;28;20066;-75
2022/09/26 04:38:45;;;;;;;9.50;6.20;;;;;;;13.19;100.00;100232.63;30883294;28;20047;-74
2022/09/26 04:53:47;;;;;;;12.83;7.47;;;;;;;13.36;100.00;100222.41;30902986;28;20058;-74
2022/09/26 05:08:50;;;;;;;22.80;7.17;;;;;;;13.74;100.00;100215.00;30855787;28;20043;-74
2022/09/26 05:54:32;;;;;;;9.57;5.67;;;;;;;14.90;100.00;100230.72;30890945;28;20058;-75
2022/09/26 06:09:34;;;;;;;13.17;5.07;;;;;;;15.07;100.00;100234.81;30874128;28;20396;-73
2022/09/26 06:24:36;;;;;;;7.10;4.77;;;;;;;15.02;100.00;100227.16;30875158;28;20054;-73
2022/09/26 06:39:39;;;;;;;9.70;5.43;;;;;;;15.30;100.00;100239.81;30867484;28;20047;-74
2022/09/26 06:54:40;;;;;;;8.00;4.63;;;;;;;16.91;100.00;100264.34;30864644;28;20419;-73
2022/09/26 07:09:42;;;;;;;7.57;4.25;;;;;;;18.68;98.17;100250.56;30875946;28;20059;-74
2022/09/26 07:24:49;;;;;;;5.80;3.75;;;;;;;20.44;88.86;100248.94;30870399;28;20411;-73
2022/09/26 07:39:50;;;;;;;6.43;3.08;;;;;;;22.21;72.28;100253.06;30892886;28;20500;-76
2022/09/26 07:54:56;;;;;;;3.70;2.83;;;;;;;22.73;67.99;100243.22;30854312;28;20061;-73
2022/09/26 08:10:00;;;;;;;6.22;2.60;;;;;;;23.07;64.73;100226.72;30878535;28;20051;-72
2022/09/26 08:25:05;;;;;;;6.80;2.80;;;;;;;22.62;64.74;100215.53;30891534;28;20061;-73
2022/09/26 08:40:07;;;;;;;4.63;3.15;;;;;;;23.39;63.27;100200.28;30913391;28;20058;-73
2022/09/26 08:55:25;;;;;;;7.67;3.50;;;;;;;26.05;54.59;100215.25;30855992;28;20492;-72
2022/09/26 09:28:57;;;;;;;10.90;4.13;;;;;;;25.95;51.78;100205.75;31663061;27;20418;-74
2022/09/26 09:44:04;;;;;;;11.18;8.73;;;;;;;23.28;57.05;100197.53;31654026;28;20060;-75
2022/09/26 09:59:23;;;;;;;3.85;2.13;;;;;;;24.46;54.38;100178.63;31647416;28;20469;-74
2022/09/26 10:14:32;;;;;;;3.55;2.92;;;;;;;24.74;50.40;100175.69;31678502;28;20067;-74
2022/09/26 10:29:37;;;;;;;3.55;2.38;;;;;;;26.50;43.46;100154.25;31588521;28;20048;-73
2022/09/26 10:44:40;;;;;;;4.80;2.35;;;;;;;26.50;39.44;100159.06;31602192;28;20059;-74
2022/09/26 10:59:42;;;;;;;1.95;1.63;;;;;;;24.58;40.80;100143.97;31608239;28;20052;-72
2022/09/26 11:14:47;;;;;;;;;;;;;;;23.94;41.89;100140.50;31600925;28;20473;-73
2022/09/26 11:30:00;;;;;;;4.78;1.80;;;;;;;23.46;40.74;100124.22;31648640;28;19965;-73
2022/09/26 11:45:15;;;;;;;4.18;2.65;;;;;;;23.19;40.36;100100.84;31636910;28;20073;-73
2022/09/26 12:00:25;;;;;;;9.02;3.03;;;;;;;24.20;40.59;100106.09;31585321;28;20056;-73
2022/09/26 12:15:34;;;;;;;54.30;29.52;;;;;;;22.57;42.88;100113.91;31562740;28;20420;-72
2022/09/26 12:30:40;;;;;;;4.82;2.70;;;;;;;22.03;46.58;100111.25;31600813;28;20056;-74
2022/09/26 12:46:00;;;;;;;5.03;2.40;;;;;;;21.50;48.93;100092.63;31616132;28;20109;-74
2022/09/26 13:01:28;;;;;;;4.30;2.25;;;;;;;21.38;50.32;100080.78;31582320;28;20040;-75
2022/09/26 13:17:05;;;;;;;3.22;2.33;;;;;;;21.12;52.29;100058.00;31609805;28;20056;-75
2022/09/26 13:32:46;;;;;;;3.28;2.45;;;;;;;20.81;55.39;100049.72;31593356;28;20062;-77
2022/09/26 13:48:07;;;;;;;5.85;2.65;;;;;;;20.53;56.93;100030.22;31598780;28;20048;-75
2022/09/26 14:03:12;;;;;;;2.50;1.83;;;;;;;20.57;57.42;100031.47;31629894;28;20503;-75
2022/09/26 14:19:08;;;;;;;5.30;2.10;;;;;;;20.42;58.65;100011.56;31625276;28;20056;-74
2022/09/26 14:34:21;;;;;;;5.50;2.45;;;;;;;20.24;58.90;100014.63;31420128;28;20048;-75
2022/09/26 14:49:27;;;;;;;3.90;2.23;;;;;;;19.96;60.29;100022.59;31608413;28;20127;-75
2022/09/26 15:04:31;;;;;;;2.88;2.50;;;;;;;19.64;61.98;100007.97;31650389;28;20062;-74
2022/09/26 15:19:41;;;;;;;6.55;2.65;;;;;;;19.26;64.58;100001.47;31575922;28;20417;-80
2022/09/26 15:34:45;;;;;;;4.43;2.85;;;;;;;18.96;65.54;100011.03;31589305;28;20057;-79
2022/09/26 15:50:09;;;;;;;3.70;2.60;;;;;;;18.80;64.98;99981.28;31594417;28;20051;-78
2022/09/26 16:05:12;;;;;;;4.25;2.72;;;;;;;18.64;64.28;99990.81;31574742;28;20116;-78
2022/09/26 16:20:14;;;;;;;6.83;2.33;;;;;;;18.50;64.36;99973.06;31581706;28;20071;-77
2022/09/26 16:35:20;;;;;;;5.15;2.20;;;;;;;18.39;65.89;99987.41;31575823;28;20074;-79
2022/09/26 16:50:32;;;;;;;5.35;2.85;;;;;;;18.29;68.92;99971.47;31574918;28;20509;-75
2022/09/26 17:05:34;;;;;;;5.43;2.50;;;;;;;18.18;76.54;99976.78;31587086;28;20083;-78
2022/09/26 17:20:38;;;;;;;4.43;2.67;;;;;;;18.08;82.24;99967.88;31634268;28;20067;-78
2022/09/26 17:35:40;;;;;;;;;;;;;;;17.94;90.44;99972.13;31647344;28;20389;-78
2022/09/26 17:50:42;;;;;;;4.88;2.42;;;;;;;17.70;88.11;99966.69;31638919;28;19920;-77
2022/09/26 18:05:45;;;;;;;8.13;2.75;;;;;;;17.41;92.19;99952.09;31654925;28;20060;-78
2022/09/26 18:20:47;;;;;;;3.28;2.20;;;;;;;17.25;93.51;99936.78;31653442;28;20051;-77
2022/09/26 18:35:50;;;;;;;8.48;2.72;;;;;;;17.07;94.43;99969.81;31662806;28;20055;-78
2022/09/26 18:50:53;;;;;;;5.63;2.45;;;;;;;16.96;94.56;99940.19;31641618;28;20074;-77
2022/09/26 19:06:11;;;;;;;4.82;2.83;;;;;;;16.73;97.39;99925.22;31598827;28;20153;-77
2022/09/26 19:21:35;;;;;;;2.90;2.30;;;;;;;16.50;100.00;99912.22;31606597;28;20048;-77
2022/09/26 19:36:36;;;;;;;6.78;2.15;;;;;;;16.36;100.00;99897.19;31610748;28;20067;-77
2022/09/26 19:51:39;;;;;;;5.07;2.63;;;;;;;16.27;100.00;99913.66;31599797;28;20474;-76
2022/09/26 20:06:40;;;;;;;2.78;2.45;;;;;;;16.17;100.00;99893.75;31576219;28;20057;-76
2022/09/26 20:21:43;;;;;;;3.63;2.63;;;;;;;16.14;100.00;99913.09;31569039;28;20097;-79
2022/09/26 20:36:48;;;;;;;3.08;2.65;;;;;;;16.11;100.00;99898.34;31574236;28;20091;-75
2022/09/26 20:51:52;;;;;;;9.50;3.30;;;;;;;16.10;100.00;99885.09;31568458;28;20071;-77
2022/09/26 21:06:54;;;;;;;3.65;2.63;;;;;;;16.08;100.00;99860.16;31559982;28;20135;-74
2022/09/26 21:21:56;;;;;;;5.47;2.70;;;;;;;16.03;100.00;99862.31;31568047;28;20157;-78
2022/09/26 21:37:01;;;;;;;7.60;3.00;;;;;;;16.07;100.00;99861.38;31596527;28;20079;-76
2022/09/26 21:52:13;;;;;;;4.80;3.08;;;;;;;16.10;100.00;99841.28;31565469;28;20044;-76
2022/09/26 22:07:15;;;;;;;4.80;3.20;;;;;;;16.08;100.00;99806.16;31572569;28;20078;-76
2022/09/26 22:22:18;;;;;;;5.93;2.97;;;;;;;16.12;100.00;99811.47;31622399;28;20043;-76
2022/09/26 22:37:20;;;;;;;5.43;2.90;;;;;;;16.15;100.00;99791.38;31640944;28;20151;-76
2022/09/26 22:52:22;;;;;;;6.60;3.23;;;;;;;16.07;100.00;99779.22;31591699;28;20059;-76
2022/09/26 23:07:24;;;;;;;7.68;3.50;;;;;;;16.08;100.00;99756.88;31602304;28;20051;-75
2022/09/26 23:22:26;;;;;;;9.02;3.78;;;;;;;16.15;100.00;99731.13;31580304;28;20048;-75
2022/09/26 23:37:29;;;;;;;9.82;3.55;;;;;;;16.19;100.00;99713.31;31579617;28;20079;-76
2022/09/26 23:52:31;;;;;;;5.53;3.42;;;;;;;16.24;100.00;99739.31;31575014;28;20109;-76
